createdAt,value
2022-10-04T00:00:40.558Z,14.32
2022-10-04T00:02:48.320Z,16.40
2022-10-04T00:04:57.738Z,17.35
2022-10-04T00:07:06.692Z,19.70
2022-10-04T00:09:18.350Z,19.05
2022-10-04T00:11:26.343Z,18.27
2022-10-04T00:13:30.787Z,17.05
2022-10-04T00:15:37.232Z,16.67
2022-10-04T00:17:39.994Z,19.35
2022-10-04T00:19:47.053Z,17.77
2022-10-04T00:22:18.277Z,16.88
2022-10-04T00:24:22.941Z,16.73
2022-10-04T00:27:13.649Z,15.93
2022-10-04T00:29:32.677Z,15.60
2022-10-04T00:31:55.640Z,14.40
2022-10-04T00:34:39.294Z,17.38
2022-10-04T00:36:56.244Z,16.17
2022-10-04T00:39:19.412Z,13.90
2022-10-04T00:41:23.004Z,21.88
2022-10-04T00:43:30.330Z,13.43
2022-10-04T00:45:38.041Z,20.65
2022-10-04T00:48:02.584Z,17.48
2022-10-04T00:50:16.623Z,17.33
2022-10-04T00:52:26.716Z,17.60
2022-10-04T00:54:35.097Z,16.92
2022-10-04T00:56:44.004Z,16.67
2022-10-04T00:59:03.705Z,13.88
2022-10-04T01:01:07.009Z,17.00
2022-10-04T01:03:15.031Z,16.40
2022-10-04T01:05:22.239Z,15.98
2022-10-04T01:07:30.339Z,14.50
2022-10-04T01:09:37.679Z,17.50
2022-10-04T01:11:45.937Z,13.40
2022-10-04T01:13:52.394Z,16.20
2022-10-04T01:16:00.638Z,12.57
2022-10-04T01:18:17.636Z,17.98
2022-10-04T01:20:33.626Z,19.63
2022-10-04T01:22:43.011Z,14.65
2022-10-04T01:24:46.316Z,14.95
2022-10-04T01:26:49.382Z,14.95
2022-10-04T01:28:52.325Z,14.95
2022-10-04T01:30:55.928Z,19.23
2022-10-04T01:32:58.760Z,15.15
2022-10-04T01:35:01.595Z,18.42
2022-10-04T01:37:04.480Z,14.40
2022-10-04T01:39:09.417Z,14.20
2022-10-04T01:41:15.753Z,13.82
2022-10-04T01:43:28.857Z,16.15
2022-10-04T01:45:38.515Z,16.58
2022-10-04T01:47:45.543Z,15.82
2022-10-04T01:49:49.852Z,18.05
2022-10-04T01:51:58.389Z,11.52
2022-10-04T01:54:06.903Z,11.68
2022-10-04T01:56:15.032Z,13.88
2022-10-04T01:58:22.187Z,16.13
2022-10-04T02:00:25.355Z,14.05
2022-10-04T02:02:36.326Z,15.88
2022-10-04T02:04:41.534Z,16.33
2022-10-04T02:06:47.121Z,14.50
2022-10-04T02:08:53.415Z,13.05
2022-10-04T02:10:57.366Z,15.65
2022-10-04T02:13:02.020Z,13.90
2022-10-04T02:15:08.570Z,15.45
2022-10-04T02:17:13.264Z,15.63
2022-10-04T02:19:17.005Z,15.00
2022-10-04T02:21:21.112Z,14.90
2022-10-04T02:23:25.168Z,13.38
2022-10-04T02:25:28.221Z,14.90
2022-10-04T02:27:31.570Z,13.40
2022-10-04T02:29:36.049Z,12.02
2022-10-04T02:31:57.990Z,14.07
2022-10-04T02:34:01.407Z,15.55
2022-10-04T02:36:05.762Z,14.60
2022-10-04T02:38:14.701Z,16.55
2022-10-04T02:40:20.176Z,14.13
2022-10-04T02:42:37.760Z,12.88
2022-10-04T02:44:45.855Z,14.48
2022-10-04T02:46:53.011Z,16.20
2022-10-04T02:48:59.146Z,14.13
2022-10-04T02:51:15.607Z,15.02
2022-10-04T02:53:26.537Z,13.70
2022-10-04T02:55:31.700Z,14.18
2022-10-04T02:57:36.228Z,14.93
2022-10-04T02:59:40.551Z,14.88
2022-10-04T03:01:52.051Z,17.45
2022-10-04T03:03:56.953Z,14.73
2022-10-04T03:08:05.845Z,14.48
2022-10-04T03:10:11.932Z,17.08
2022-10-04T03:12:15.907Z,15.15
2022-10-04T03:14:21.310Z,17.07
2022-10-04T03:16:24.991Z,17.63
2022-10-04T03:18:31.249Z,16.30
2022-10-04T03:20:38.142Z,14.05
2022-10-04T03:22:46.100Z,13.05
2022-10-04T03:24:53.512Z,13.52
2022-10-04T03:26:59.788Z,12.25
2022-10-04T03:29:02.925Z,15.52
2022-10-04T03:31:06.328Z,16.17
2022-10-04T03:33:09.198Z,15.15
2022-10-04T03:35:29.037Z,13.82
2022-10-04T03:37:35.816Z,14.38
2022-10-04T03:39:41.595Z,13.63
2022-10-04T03:41:44.803Z,15.25
2022-10-04T03:43:50.368Z,13.80
2022-10-04T03:45:54.163Z,13.45
2022-10-04T03:48:03.080Z,13.60
2022-10-04T03:50:15.391Z,14.05
2022-10-04T03:52:23.955Z,14.18
2022-10-04T03:54:28.137Z,18.08
2022-10-04T03:56:33.958Z,13.75
2022-10-04T03:58:37.242Z,12.57
2022-10-04T04:00:45.328Z,13.70
2022-10-04T04:02:52.062Z,14.60
2022-10-04T04:05:05.084Z,19.58
2022-10-04T04:07:14.106Z,14.68
2022-10-04T04:09:24.589Z,13.93
2022-10-04T04:11:28.709Z,12.88
2022-10-04T04:13:39.569Z,14.85
2022-10-04T04:15:45.478Z,15.15
2022-10-04T04:17:52.303Z,17.92
2022-10-04T04:19:58.425Z,20.00
2022-10-04T04:22:01.382Z,21.00
2022-10-04T04:24:09.944Z,19.92
2022-10-04T04:26:23.024Z,24.35
2022-10-04T04:28:29.915Z,17.95
2022-10-04T04:30:35.386Z,25.52
2022-10-04T04:32:43.263Z,19.15
2022-10-04T04:34:52.773Z,23.58
2022-10-04T04:37:00.120Z,20.70
2022-10-04T04:39:28.001Z,19.50
2022-10-04T04:41:35.951Z,19.35
2022-10-04T04:43:44.500Z,28.35
2022-10-04T04:46:02.931Z,21.70
2022-10-04T04:48:15.645Z,22.77
2022-10-04T04:50:20.804Z,16.63
2022-10-04T04:52:33.819Z,20.17
2022-10-04T04:54:36.642Z,19.80
2022-10-04T04:56:43.130Z,24.63
2022-10-04T04:58:49.054Z,33.63
2022-10-04T05:00:57.963Z,21.77
2022-10-04T05:03:02.855Z,19.80
2022-10-04T05:07:19.892Z,29.75
2022-10-04T05:09:25.751Z,51.60
2022-10-04T05:11:30.962Z,44.45
2022-10-04T05:13:40.036Z,60.53
2022-10-04T05:15:43.886Z,55.63
2022-10-04T05:17:46.982Z,54.58
2022-10-04T05:19:51.495Z,58.45
2022-10-04T05:21:56.631Z,52.95
2022-10-04T05:24:08.642Z,50.53
2022-10-04T05:26:13.676Z,60.20
2022-10-04T05:28:18.498Z,50.40
2022-10-04T05:32:45.088Z,42.67
2022-10-04T05:34:51.003Z,39.13
2022-10-04T05:37:23.535Z,36.60
2022-10-04T05:39:29.356Z,33.03
2022-10-04T05:41:41.946Z,33.50
2022-10-04T05:43:47.075Z,28.63
2022-10-04T05:46:19.391Z,26.23
2022-10-04T05:48:22.376Z,20.92
2022-10-04T05:50:31.366Z,20.05
2022-10-04T05:52:36.989Z,22.65
2022-10-04T05:54:39.831Z,18.02
2022-10-04T05:57:08.188Z,12.45
2022-10-04T05:59:26.495Z,15.68
2022-10-04T06:01:44.052Z,12.45
2022-10-04T06:04:04.393Z,11.55
2022-10-04T06:06:17.242Z,9.77
2022-10-04T06:08:32.265Z,14.77
2022-10-04T06:10:50.488Z,14.43
2022-10-04T06:12:58.467Z,11.85
2022-10-04T06:15:14.224Z,13.02
2022-10-04T06:17:39.386Z,9.95
2022-10-04T06:20:06.202Z,11.70
2022-10-04T06:22:17.187Z,10.30
2022-10-04T06:24:27.161Z,12.32
2022-10-04T06:26:40.441Z,10.32
2022-10-04T06:28:47.687Z,11.38
2022-10-04T06:31:08.854Z,11.65
2022-10-04T06:33:35.985Z,12.13
2022-10-04T06:36:22.041Z,13.18
2022-10-04T06:39:04.219Z,14.18
2022-10-04T06:41:34.752Z,12.57
2022-10-04T06:44:02.553Z,11.73
2022-10-04T06:46:22.062Z,14.88
2022-10-04T06:48:56.704Z,13.82
2022-10-04T06:51:09.129Z,14.70
2022-10-04T06:53:20.562Z,11.10
2022-10-04T06:55:48.568Z,12.20
2022-10-04T06:58:34.525Z,11.50
2022-10-04T07:00:45.957Z,13.50
2022-10-04T07:02:53.992Z,16.15
2022-10-04T07:05:08.512Z,14.00
2022-10-04T07:07:34.883Z,12.18
2022-10-04T07:11:50.197Z,13.38
2022-10-04T07:13:57.591Z,12.45
2022-10-04T07:16:06.504Z,14.40
2022-10-04T07:18:15.166Z,14.80
2022-10-04T07:20:24.276Z,17.92
2022-10-04T07:22:31.355Z,17.65
2022-10-04T07:24:47.724Z,17.92
2022-10-04T07:26:53.342Z,30.70
2022-10-04T07:29:16.998Z,31.95
2022-10-04T07:31:25.954Z,30.35
2022-10-04T07:33:32.418Z,37.35
2022-10-04T07:35:44.859Z,33.90
2022-10-04T07:37:53.347Z,33.17
2022-10-04T07:40:03.203Z,30.35
2022-10-04T07:42:15.142Z,28.45
2022-10-04T07:44:27.828Z,29.90
2022-10-04T07:46:45.105Z,26.08
2022-10-04T07:48:49.261Z,24.58
2022-10-04T07:51:05.982Z,30.40
2022-10-04T07:53:13.176Z,34.38
2022-10-04T07:55:24.823Z,38.03
2022-10-04T07:57:31.801Z,26.75
2022-10-04T07:59:46.157Z,33.97
2022-10-04T08:02:01.758Z,27.55
2022-10-04T08:04:30.932Z,31.70
2022-10-04T08:06:39.849Z,30.42
2022-10-04T08:09:02.880Z,31.23
2022-10-04T08:11:30.098Z,31.35
2022-10-04T08:13:41.401Z,30.55
2022-10-04T08:15:45.563Z,28.15
2022-10-04T08:17:57.103Z,31.70
2022-10-04T08:20:14.388Z,29.88
2022-10-04T08:22:28.439Z,39.50
2022-10-04T08:24:36.547Z,29.77
2022-10-04T08:26:50.641Z,34.83
2022-10-04T08:29:19.965Z,27.60
2022-10-04T08:31:38.842Z,25.10
2022-10-04T08:34:03.864Z,36.38
2022-10-04T08:36:18.143Z,22.35
2022-10-04T08:38:43.008Z,34.13
2022-10-04T08:41:08.333Z,27.23
2022-10-04T08:43:40.633Z,25.67
2022-10-04T08:46:15.967Z,28.38
2022-10-04T08:48:51.398Z,26.03
2022-10-04T08:51:27.434Z,22.48
2022-10-04T08:54:02.053Z,22.17
2022-10-04T08:56:18.283Z,22.02
2022-10-04T08:58:41.862Z,22.08
2022-10-04T09:01:01.803Z,22.50
2022-10-04T09:03:31.512Z,22.15
2022-10-04T09:05:57.216Z,27.17
2022-10-04T09:08:32.497Z,18.60
2022-10-04T09:10:44.414Z,18.30
2022-10-04T09:12:57.553Z,19.65
2022-10-04T09:15:22.166Z,20.38
2022-10-04T09:17:39.910Z,19.70
2022-10-04T09:19:54.943Z,23.88
2022-10-04T09:22:18.805Z,19.60
2022-10-04T09:24:54.400Z,19.30
2022-10-04T09:27:12.105Z,19.75
2022-10-04T09:29:52.192Z,18.73
2022-10-04T09:32:25.251Z,19.00
2022-10-04T09:34:41.824Z,16.73
2022-10-04T09:37:07.238Z,16.58
2022-10-04T09:39:39.060Z,14.55
2022-10-04T09:42:16.008Z,11.90
2022-10-04T09:44:48.470Z,11.95
2022-10-04T09:47:16.808Z,16.05
2022-10-04T09:49:37.847Z,15.98
2022-10-04T09:52:15.536Z,18.95
2022-10-04T09:54:49.694Z,14.32
2022-10-04T09:57:09.792Z,11.38
2022-10-04T09:59:35.240Z,16.48
2022-10-04T10:01:44.534Z,11.38
2022-10-04T10:04:22.091Z,15.27
2022-10-04T10:06:41.591Z,13.13
2022-10-04T10:08:56.393Z,15.65
2022-10-04T10:11:27.706Z,17.38
2022-10-04T10:13:59.506Z,13.57
2022-10-04T10:16:12.764Z,14.27
2022-10-04T10:18:27.805Z,14.13
2022-10-04T10:21:05.804Z,12.07
2022-10-04T10:23:39.262Z,13.52
2022-10-04T10:25:53.542Z,10.75
2022-10-04T10:28:29.032Z,9.27
2022-10-04T10:30:46.989Z,14.10
2022-10-04T10:33:35.772Z,8.60
2022-10-04T10:36:01.043Z,11.38
2022-10-04T10:38:29.202Z,9.70
2022-10-04T10:40:53.541Z,9.05
2022-10-04T10:43:27.776Z,8.98
2022-10-04T10:45:48.509Z,8.88
2022-10-04T10:47:56.126Z,11.10
2022-10-04T10:50:18.310Z,10.50
2022-10-04T10:52:54.590Z,9.27
2022-10-04T10:55:26.917Z,6.78
2022-10-04T10:57:56.779Z,7.28
2022-10-04T11:00:21.900Z,13.40
2022-10-04T11:02:51.187Z,5.57
2022-10-04T11:05:10.087Z,7.03
2022-10-04T11:07:50.244Z,7.32
2022-10-04T11:10:21.828Z,10.35
2022-10-04T11:12:42.638Z,7.35
2022-10-04T11:15:15.104Z,5.63
2022-10-04T11:17:38.468Z,9.13
2022-10-04T11:20:05.557Z,7.20
2022-10-04T11:22:57.454Z,5.72
2022-10-04T11:25:25.356Z,6.03
2022-10-04T11:27:46.605Z,5.57
2022-10-04T11:30:04.173Z,7.30
2022-10-04T11:35:03.448Z,8.60
2022-10-04T11:37:16.376Z,8.57
2022-10-04T11:39:45.904Z,8.02
2022-10-04T11:41:56.973Z,7.30
2022-10-04T11:44:35.320Z,5.70
2022-10-04T11:46:46.112Z,8.63
2022-10-04T11:49:04.996Z,6.22
2022-10-04T11:51:51.261Z,8.00
2022-10-04T11:54:24.323Z,5.00
2022-10-04T11:56:56.357Z,9.20
2022-10-04T11:59:15.298Z,7.50
2022-10-04T12:02:01.197Z,4.30
2022-10-04T12:04:27.125Z,8.95
2022-10-04T12:06:51.313Z,6.43
2022-10-04T12:09:11.813Z,10.10
2022-10-04T12:11:49.464Z,6.55
2022-10-04T12:14:09.310Z,5.40
2022-10-04T12:16:41.401Z,10.05
2022-10-04T12:19:25.676Z,7.10
2022-10-04T12:21:50.677Z,9.55
2022-10-04T12:24:21.366Z,15.30
2022-10-04T12:26:44.899Z,7.93
2022-10-04T12:29:20.501Z,5.72
2022-10-04T12:31:29.415Z,9.00
2022-10-04T12:33:39.727Z,7.20
2022-10-04T12:36:03.627Z,6.22
2022-10-04T12:38:37.384Z,9.10
2022-10-04T12:40:49.450Z,8.23
2022-10-04T12:42:59.682Z,6.28
2022-10-04T12:45:19.995Z,7.22
2022-10-04T12:47:48.133Z,6.70
2022-10-04T12:50:01.395Z,7.88
2022-10-04T12:52:12.025Z,8.90
2022-10-04T12:54:38.998Z,9.48
2022-10-04T12:56:50.616Z,7.68
2022-10-04T12:59:07.229Z,9.40
2022-10-04T13:01:24.918Z,9.07
2022-10-04T13:03:40.117Z,9.60
2022-10-04T13:05:55.714Z,9.73
2022-10-04T13:08:12.667Z,7.38
2022-10-04T13:10:33.198Z,8.65
2022-10-04T13:12:45.326Z,5.70
2022-10-04T13:15:01.881Z,8.40
2022-10-04T13:17:29.826Z,7.78
2022-10-04T13:19:50.105Z,5.32
2022-10-04T13:22:06.375Z,6.53
2022-10-04T13:24:16.172Z,3.83
2022-10-04T13:26:42.424Z,5.75
2022-10-04T13:28:53.856Z,6.32
2022-10-04T13:31:04.104Z,8.13
2022-10-04T13:33:19.689Z,4.35
2022-10-04T13:35:27.002Z,8.98
2022-10-04T13:37:37.359Z,6.40
2022-10-04T13:40:21.940Z,7.20
2022-10-04T13:42:36.731Z,8.27
2022-10-04T13:45:05.361Z,4.85
2022-10-04T13:47:24.016Z,6.10
2022-10-04T13:49:42.964Z,7.80
2022-10-04T13:52:20.587Z,6.88
2022-10-04T13:54:50.883Z,6.63
2022-10-04T13:57:15.864Z,7.10
2022-10-04T13:59:30.933Z,8.13
2022-10-04T14:01:59.259Z,5.55
2022-10-04T14:04:18.083Z,7.00
2022-10-04T14:06:58.890Z,5.78
2022-10-04T14:09:22.351Z,7.68
2022-10-04T14:11:54.032Z,5.05
2022-10-04T14:14:37.473Z,5.28
2022-10-04T14:17:01.048Z,7.63
2022-10-04T14:19:39.009Z,5.82
2022-10-04T14:22:13.406Z,6.65
2022-10-04T14:25:06.574Z,6.35
2022-10-04T14:27:43.301Z,6.10
2022-10-04T14:30:18.514Z,8.35
2022-10-04T14:32:51.034Z,5.70
2022-10-04T14:35:00.491Z,5.10
2022-10-04T14:37:28.296Z,5.88
2022-10-04T14:39:59.167Z,4.43
2022-10-04T14:42:23.772Z,5.00
2022-10-04T14:44:45.043Z,6.57
2022-10-04T14:47:00.478Z,6.53
2022-10-04T14:51:26.515Z,7.40
2022-10-04T14:53:37.991Z,6.53
2022-10-04T14:55:58.491Z,5.18
2022-10-04T14:58:18.575Z,5.53
2022-10-04T15:00:23.620Z,7.22
2022-10-04T15:02:49.175Z,5.45
2022-10-04T15:09:34.242Z,4.47
2022-10-04T15:12:21.648Z,6.75
2022-10-04T15:14:35.606Z,5.10
2022-10-04T15:16:46.657Z,7.47
2022-10-04T15:18:57.101Z,5.20
2022-10-04T15:21:04.704Z,3.63
2022-10-04T15:23:17.395Z,6.85
2022-10-04T15:25:40.410Z,7.47
2022-10-04T15:27:53.233Z,6.28
2022-10-04T15:30:05.075Z,5.20
2022-10-04T15:32:24.163Z,4.72
2022-10-04T15:34:33.646Z,6.05
2022-10-04T15:37:03.650Z,3.03
2022-10-04T15:39:23.489Z,5.80
2022-10-04T15:41:37.528Z,5.20
2022-10-04T15:43:44.806Z,5.18
2022-10-04T15:46:25.221Z,5.60
2022-10-04T15:48:39.272Z,4.97
2022-10-04T15:51:01.074Z,4.85
2022-10-04T15:53:20.257Z,9.27
2022-10-04T15:55:32.000Z,5.28
2022-10-04T15:57:58.395Z,5.07
2022-10-04T16:00:15.185Z,5.47
2022-10-04T16:02:31.356Z,4.22
2022-10-04T16:04:44.720Z,8.38
2022-10-04T16:06:53.992Z,5.28
2022-10-04T16:09:19.569Z,4.97
2022-10-04T16:11:35.498Z,7.18
2022-10-04T16:13:56.764Z,8.13
2022-10-04T16:16:36.078Z,7.13
2022-10-04T16:18:51.218Z,7.15
2022-10-04T16:23:24.999Z,6.47
2022-10-04T16:25:38.641Z,7.15
2022-10-04T16:27:57.933Z,5.82
2022-10-04T16:30:25.950Z,4.95
2022-10-04T16:32:38.818Z,5.97
2022-10-04T16:34:50.868Z,7.88
2022-10-04T16:36:59.700Z,5.70
2022-10-04T16:39:22.040Z,4.82
2022-10-04T16:41:34.886Z,9.68
2022-10-04T16:43:49.496Z,4.65
2022-10-04T16:46:10.853Z,5.70
2022-10-04T16:48:28.709Z,6.68
2022-10-04T16:51:25.176Z,5.10
2022-10-04T16:53:45.634Z,5.82
2022-10-04T16:55:54.076Z,7.10
2022-10-04T16:58:41.348Z,5.10
2022-10-04T17:00:44.490Z,4.40
2022-10-04T17:03:04.593Z,4.78
2022-10-04T17:05:33.392Z,6.63
2022-10-04T17:07:52.801Z,4.63
2022-10-04T17:10:04.293Z,6.78
2022-10-04T17:12:18.116Z,6.60
2022-10-04T17:14:56.850Z,9.82
2022-10-04T17:17:07.300Z,8.00
2022-10-04T17:19:33.775Z,5.50
2022-10-04T17:21:46.126Z,6.22
2022-10-04T17:24:15.432Z,11.02
2022-10-04T17:26:30.805Z,6.97
2022-10-04T17:28:45.861Z,8.07
2022-10-04T17:30:55.598Z,7.75
2022-10-04T17:33:21.789Z,17.48
2022-10-04T17:35:57.243Z,6.28
2022-10-04T17:38:08.735Z,11.00
2022-10-04T17:40:30.011Z,9.15
2022-10-04T17:42:41.097Z,8.70
2022-10-04T17:44:57.529Z,11.30
2022-10-04T17:47:11.903Z,9.75
2022-10-04T17:49:44.025Z,11.35
2022-10-04T17:52:07.773Z,11.10
2022-10-04T17:54:33.714Z,13.05
2022-10-04T17:56:43.675Z,12.50
2022-10-04T17:58:51.863Z,11.00
2022-10-04T18:01:01.949Z,11.07
2022-10-04T18:03:16.167Z,12.30
2022-10-04T18:05:25.552Z,10.53
2022-10-04T18:07:33.687Z,10.65
2022-10-04T18:09:44.866Z,15.60
2022-10-04T18:11:52.021Z,13.18
2022-10-04T18:14:01.722Z,9.18
2022-10-04T18:16:15.150Z,10.30
2022-10-04T18:18:21.295Z,11.18
2022-10-04T18:20:30.507Z,13.15
2022-10-04T18:22:46.434Z,10.77
2022-10-04T18:25:12.684Z,9.23
2022-10-04T18:27:21.025Z,10.30
2022-10-04T18:29:39.156Z,11.23
2022-10-04T18:31:42.125Z,9.00
2022-10-04T18:33:51.046Z,22.67
2022-10-04T18:36:00.856Z,19.67
2022-10-04T18:38:24.276Z,15.15
2022-10-04T18:40:34.048Z,12.65
2022-10-04T18:42:38.214Z,16.25
2022-10-04T18:44:46.862Z,11.68
2022-10-04T18:46:56.990Z,14.73
2022-10-04T18:49:12.806Z,13.88
2022-10-04T18:51:26.015Z,11.80
2022-10-04T18:53:44.252Z,9.73
2022-10-04T18:55:58.164Z,9.63
2022-10-04T18:58:31.624Z,7.80
2022-10-04T19:00:58.341Z,11.43
2022-10-04T19:03:08.667Z,8.57
2022-10-04T19:05:17.449Z,9.85
2022-10-04T19:07:30.928Z,9.75
2022-10-04T19:09:48.625Z,9.05
2022-10-04T19:11:58.664Z,11.23
2022-10-04T19:14:09.225Z,12.57
2022-10-04T19:16:32.276Z,14.20
2022-10-04T19:18:47.871Z,12.02
2022-10-04T19:20:59.330Z,10.20
2022-10-04T19:23:15.486Z,12.85
2022-10-04T19:25:30.003Z,11.85
2022-10-04T19:27:38.720Z,12.05
2022-10-04T19:29:54.811Z,12.32
2022-10-04T19:32:01.139Z,10.48
2022-10-04T19:34:10.192Z,12.93
2022-10-04T19:36:33.239Z,14.43
2022-10-04T19:38:53.426Z,12.73
2022-10-04T19:41:03.869Z,10.82
2022-10-04T19:43:15.452Z,12.07
2022-10-04T19:45:33.427Z,11.30
2022-10-04T19:47:50.668Z,13.00
2022-10-04T19:50:01.909Z,9.70
2022-10-04T19:52:20.180Z,14.27
2022-10-04T19:54:31.960Z,11.90
2022-10-04T19:56:39.840Z,10.63
2022-10-04T19:58:46.025Z,9.23
2022-10-04T20:00:49.710Z,12.93
2022-10-04T20:02:52.634Z,9.40
2022-10-04T20:04:57.319Z,9.32
2022-10-04T20:09:26.823Z,13.15
2022-10-04T20:11:48.724Z,10.27
2022-10-04T20:14:25.223Z,12.68
2022-10-04T20:16:57.824Z,10.68
2022-10-04T20:19:16.535Z,10.60
2022-10-04T20:21:27.315Z,12.48
2022-10-04T20:23:49.505Z,14.30
2022-10-04T20:26:03.852Z,14.18
2022-10-04T20:28:06.721Z,11.57
2022-10-04T20:30:14.669Z,12.27
2022-10-04T20:32:50.686Z,13.18
2022-10-04T20:34:55.944Z,14.68
2022-10-04T20:36:58.821Z,11.93
2022-10-04T20:39:02.386Z,9.90
2022-10-04T20:41:05.178Z,13.30
2022-10-04T20:43:27.310Z,13.70
2022-10-04T20:45:31.518Z,13.48
2022-10-04T20:47:43.363Z,12.98
2022-10-04T20:49:46.526Z,14.52
2022-10-04T20:51:51.183Z,14.68
2022-10-04T20:56:12.250Z,13.43
2022-10-04T20:58:31.480Z,16.27
2022-10-04T21:00:35.635Z,14.20
2022-10-04T21:02:38.598Z,14.23
2022-10-04T21:04:44.178Z,16.95
2022-10-04T21:06:55.866Z,16.42
2022-10-04T21:08:59.197Z,14.85
2022-10-04T21:11:19.331Z,14.43
2022-10-04T21:13:44.637Z,16.17
2022-10-04T21:15:57.055Z,19.00
2022-10-04T21:18:02.697Z,17.65
2022-10-04T21:20:07.128Z,15.77
2022-10-04T21:22:31.818Z,15.93
2022-10-04T21:24:36.539Z,15.65
2022-10-04T21:28:42.303Z,17.55
2022-10-04T21:30:45.061Z,19.98
2022-10-04T21:32:47.820Z,13.65
2022-10-04T21:34:53.845Z,14.82
2022-10-04T21:36:59.675Z,14.77
2022-10-04T21:39:03.906Z,17.20
2022-10-04T21:41:07.007Z,17.25
2022-10-04T21:43:09.781Z,15.38
2022-10-04T21:45:12.478Z,14.10
2022-10-04T21:47:15.325Z,14.02
2022-10-04T21:49:18.234Z,15.15
2022-10-04T21:51:21.278Z,12.05
2022-10-04T21:53:24.209Z,16.35
2022-10-04T21:55:28.320Z,17.17
2022-10-04T21:57:35.684Z,15.35
2022-10-04T21:59:39.998Z,15.98
2022-10-04T22:01:42.897Z,15.55
2022-10-04T22:03:45.692Z,12.15
2022-10-04T22:05:48.567Z,13.43
2022-10-04T22:07:54.388Z,13.15
2022-10-04T22:09:57.139Z,18.42
2022-10-04T22:12:04.443Z,26.05
2022-10-04T22:14:07.210Z,18.73
2022-10-04T22:16:10.498Z,20.73
2022-10-04T22:18:13.387Z,19.67
2022-10-04T22:20:16.127Z,20.80
2022-10-04T22:22:20.198Z,17.15
2022-10-04T22:24:22.944Z,14.00
2022-10-04T22:26:27.398Z,17.13
2022-10-04T22:28:31.956Z,13.00
2022-10-04T22:30:36.269Z,14.85
2022-10-04T22:32:39.189Z,13.10
2022-10-04T22:34:41.965Z,18.95
2022-10-04T22:36:46.002Z,24.13
2022-10-04T22:38:52.173Z,21.20
2022-10-04T22:40:54.965Z,17.08
2022-10-04T22:43:00.648Z,17.52
2022-10-04T22:45:10.287Z,22.85
2022-10-04T22:47:15.185Z,16.75
2022-10-04T22:51:21.577Z,12.65
2022-10-04T22:53:25.030Z,10.02
2022-10-04T22:55:27.847Z,12.25
2022-10-04T22:57:31.541Z,14.35
2022-10-04T22:59:38.720Z,14.23
2022-10-04T23:01:44.904Z,13.05
2022-10-04T23:03:49.498Z,13.23
2022-10-04T23:05:52.389Z,11.75
2022-10-04T23:07:55.165Z,12.32
2022-10-04T23:09:57.873Z,12.38
2022-10-04T23:12:00.711Z,14.50
2022-10-04T23:14:03.482Z,11.65
2022-10-04T23:16:13.945Z,13.70
2022-10-04T23:18:19.499Z,14.85
2022-10-04T23:20:23.030Z,12.65
2022-10-04T23:22:28.750Z,11.48
2022-10-04T23:24:31.813Z,9.60
2022-10-04T23:26:38.593Z,13.05
2022-10-04T23:28:41.487Z,11.88
2022-10-04T23:30:45.458Z,11.98
2022-10-04T23:32:49.898Z,16.73
2022-10-04T23:34:56.829Z,14.85
2022-10-04T23:37:00.058Z,15.00
2022-10-04T23:39:02.881Z,17.10
2022-10-04T23:41:10.643Z,13.43
2022-10-04T23:43:18.109Z,15.93
2022-10-04T23:45:27.430Z,10.65
2022-10-04T23:47:33.994Z,13.65
2022-10-04T23:49:36.835Z,19.40
2022-10-04T23:51:40.990Z,11.43
2022-10-04T23:53:45.632Z,10.43
2022-10-04T23:55:48.494Z,20.17
2022-10-04T23:57:51.717Z,19.80
2022-10-04T23:59:54.840Z,14.13
